Airfield :







YOU CAN JOIN US ON...

 
LOGIN :

Register | Disclaimer

   EN    FR    IT 

 









Legend :    VFR   Marginal VFR   IFR   Intensive IFR   Very Intensive IFR
Visi :
Ceiling :
>= 8 km
>= 3000ft
5 to 8 km
1000 to 3000 ft
1500m to 5 km
500 to 1000 ft
800 to 1500m
200 to 500 ft
< 800m
< 200 ft
Symbols :   Thunderstorms  Fog  Heavy snow  Heavy precipitations  Wind > 20 kt






- Airport Elevation : 787 ft
- IATA code : RUT


KRUT - Rutland - Southern Vermont Regional

CURRENT METAR :
  • 240356Z AUTO 28007KT 10SM CLR 11/01 A3010 RMK AO2 SLP187 T01060006 $

EXPIRED METARs :
  • 240256Z AUTO 28006KT 10SM CLR 11/01 A3010 RMK AO2 SLP187 T01110006 51022 $
  • 240156Z AUTO 25010KT 10SM SCT075 12/02 A3007 RMK AO2 SLP181 T01170017 $

TAF KRUT
Valid from the 24 at 00:00 until the 25 at 00:00 UTC


232336Z 2400/2424 27008KT P6SM FEW060
FM240400 23005KT P6SM SKC
FM240900 14005KT P6SM SKC
FM241600 19010KT P6SM SCT120



MET'MAP, your aeronautical weather chart ! - Copyright ORBIFLY December 2007 - Disclaimer

ORBIFLY MET'MAP TEAM :

Programming & Development : Alexandra Zaïnal
Concept & Development : Baudouin d'Aumeries
Co-Development & Prog : Marc-Olivier Méhu
Technical & hardware support : Manuel Goepfert

Contact : metmap@orbifly.com




SOURCES & CREDITS :

   NOAA